Time;durP1;ratioP1;P1;durP2;ratioP2;P2;SDS_P1;SDS_P2;PMS_P1;PMS_P2;Temp;Humidity;BMP_temperature;BMP_pressure;BME280_temperature;BME280_humidity;BME280_pressure;Samples;Min_cycle;Max_cycle;Signal;HPM_P1;HPM_P2
2023/04/16 00:02:18;;;;;;;20.67;14.13;;;;;;;;;;4979692;28;20440;-77
2023/04/16 00:04:44;;;;;;;21.60;13.40;;;;;;;;;;4993578;28;20416;-79
2023/04/16 00:07:10;;;;;;;23.17;15.50;;;;;;;;;;4943712;28;20976;-77
2023/04/16 00:09:36;;;;;;;23.10;14.37;;;;;;;;;;4948561;28;20431;-78
2023/04/16 00:12:02;;;;;;;19.73;14.27;;;;;;;;;;4974585;28;20417;-75
2023/04/16 00:14:29;;;;;;;17.93;15.07;;;;;;;;;;4974675;28;20420;-76
2023/04/16 00:16:54;;;;;;;20.50;14.10;;;;;;;;;;4957010;28;20520;-77
2023/04/16 00:19:20;;;;;;;17.90;14.13;;;;;;;;;;4974479;28;20452;-80
2023/04/16 00:21:46;;;;;;;23.23;15.07;;;;;;;;;;4974398;28;20431;-77
2023/04/16 00:24:12;;;;;;;18.00;12.33;;;;;;;;;;4974435;28;20416;-76
2023/04/16 00:26:39;;;;;;;21.40;13.47;;;;;;;;;;4974313;28;20655;-78
2023/04/16 00:29:05;;;;;;;17.23;12.20;;;;;;;;;;4973934;28;20678;-79
2023/04/16 00:31:32;;;;;;;16.73;12.70;;;;;;;;;;4969847;28;20467;-78
2023/04/16 00:33:58;;;;;;;15.50;12.67;;;;;;;;;;4956961;28;20945;-79
2023/04/16 00:36:25;;;;;;;21.23;14.57;;;;;;;;;;4955734;28;20788;-79
2023/04/16 00:38:51;;;;;;;20.97;13.40;;;;;;;;;;4956854;28;20426;-79
2023/04/16 00:41:17;;;;;;;22.70;15.50;;;;;;;;;;4956680;28;20939;-83
2023/04/16 00:43:43;;;;;;;21.60;13.27;;;;;;;;;;4973899;28;20483;-83
2023/04/16 00:46:09;;;;;;;19.73;12.43;;;;;;;;;;4956603;28;20429;-81
2023/04/16 00:48:37;;;;;;;25.03;14.03;;;;;;;;;;4973897;28;20442;-83
2023/04/16 00:51:06;;;;;;;16.10;11.67;;;;;;;;;;4973913;28;20458;-80
2023/04/16 00:53:33;;;;;;;19.40;12.10;;;;;;;;;;4956580;28;20425;-82
2023/04/16 00:55:59;;;;;;;18.97;13.40;;;;;;;;;;4973842;28;20467;-81
2023/04/16 00:58:25;;;;;;;19.13;13.87;;;;;;;;;;4973434;28;20417;-81
2023/04/16 01:00:51;;;;;;;16.83;12.90;;;;;;;;;;4970716;28;20433;-82
2023/04/16 01:03:17;;;;;;;22.33;13.47;;;;;;;;;;4955636;28;20480;-81
2023/04/16 01:05:44;;;;;;;18.07;12.80;;;;;;;;;;4955046;28;20519;-82
2023/04/16 01:08:17;;;;;;;18.30;12.57;;;;;;;;;;4973748;28;20467;-84
2023/04/16 01:10:43;;;;;;;17.73;13.63;;;;;;;;;;4973664;28;21009;-83
2023/04/16 01:13:08;;;;;;;21.33;14.17;;;;;;;;;;4973109;28;20502;-77
2023/04/16 01:15:34;;;;;;;19.33;12.40;;;;;;;;;;4972519;28;20474;-76
2023/04/16 01:18:00;;;;;;;16.40;11.67;;;;;;;;;;4973548;28;20429;-82
2023/04/16 01:20:26;;;;;;;20.70;13.70;;;;;;;;;;4973736;28;20443;-84
2023/04/16 01:22:52;;;;;;;15.13;9.90;;;;;;;;;;4973430;28;20515;-82
2023/04/16 01:25:18;;;;;;;15.73;12.67;;;;;;;;;;4973181;28;20514;-77
2023/04/16 01:27:44;;;;;;;19.53;12.97;;;;;;;;;;4972169;28;20823;-76
2023/04/16 01:30:10;;;;;;;18.57;11.67;;;;;;;;;;4972326;28;20904;-83
2023/04/16 01:32:36;;;;;;;15.43;11.23;;;;;;;;;;4973006;28;20482;-84
2023/04/16 01:35:02;;;;;;;19.87;13.07;;;;;;;;;;4972863;28;20410;-85
2023/04/16 01:37:29;;;;;;;17.17;12.23;;;;;;;;;;4970316;28;20507;-83
2023/04/16 01:39:55;;;;;;;16.27;12.70;;;;;;;;;;4973373;28;20533;-84
2023/04/16 01:42:20;;;;;;;15.60;11.47;;;;;;;;;;4972821;28;20843;-76
2023/04/16 01:44:46;;;;;;;13.20;9.63;;;;;;;;;;4973022;28;20443;-81
2023/04/16 01:47:12;;;;;;;17.63;11.83;;;;;;;;;;4972734;28;20271;-82
2023/04/16 01:49:38;;;;;;;16.10;11.10;;;;;;;;;;4973013;28;20415;-81
2023/04/16 01:52:07;;;;;;;16.90;12.70;;;;;;;;;;4973149;28;20478;-78
2023/04/16 01:54:33;;;;;;;16.33;11.77;;;;;;;;;;4972954;28;20413;-81
2023/04/16 01:57:00;;;;;;;19.90;12.73;;;;;;;;;;4972676;28;20496;-81
2023/04/16 01:59:26;;;;;;;16.20;12.50;;;;;;;;;;4918681;28;20207;-80
2023/04/16 02:01:52;;;;;;;19.43;10.80;;;;;;;;;;4964693;28;20426;-79
2023/04/16 02:04:18;;;;;;;15.33;11.80;;;;;;;;;;4955497;28;20508;-82
2023/04/16 02:06:44;;;;;;;19.33;10.80;;;;;;;;;;4971874;28;20962;-77
2023/04/16 02:09:10;;;;;;;14.30;11.20;;;;;;;;;;4956715;28;20460;-81
2023/04/16 02:11:36;;;;;;;18.77;11.50;;;;;;;;;;4955483;28;20456;-83
2023/04/16 02:14:02;;;;;;;15.40;10.83;;;;;;;;;;4955061;28;20508;-81
2023/04/16 02:16:27;;;;;;;15.07;10.50;;;;;;;;;;4972289;28;20548;-82
2023/04/16 02:18:53;;;;;;;20.97;10.63;;;;;;;;;;4955542;28;20418;-80
2023/04/16 02:21:19;;;;;;;15.47;9.83;;;;;;;;;;4972648;28;20422;-82
2023/04/16 02:23:50;;;;;;;18.07;12.57;;;;;;;;;;4972736;28;20422;-79
2023/04/16 02:26:16;;;;;;;13.20;9.90;;;;;;;;;;4972959;28;20453;-79
2023/04/16 02:28:42;;;;;;;13.67;9.50;;;;;;;;;;4976316;28;20421;-81
2023/04/16 02:31:07;;;;;;;21.07;10.80;;;;;;;;;;4969156;28;20418;-81
2023/04/16 02:33:34;;;;;;;18.00;12.00;;;;;;;;;;4976444;28;20421;-81
2023/04/16 02:36:00;;;;;;;17.90;11.23;;;;;;;;;;4957937;28;20854;-79
2023/04/16 02:38:26;;;;;;;12.73;9.97;;;;;;;;;;4976463;28;20448;-80
2023/04/16 02:40:52;;;;;;;12.70;9.50;;;;;;;;;;4976090;28;20192;-82
2023/04/16 02:43:18;;;;;;;17.10;10.27;;;;;;;;;;4975872;28;20931;-83
2023/04/16 02:45:44;;;;;;;13.70;10.60;;;;;;;;;;4976203;28;20426;-82
2023/04/16 02:48:10;;;;;;;14.43;9.47;;;;;;;;;;4976322;28;20474;-76
2023/04/16 02:50:36;;;;;;;15.37;10.43;;;;;;;;;;4969533;28;20441;-77
2023/04/16 02:53:03;;;;;;;16.23;10.60;;;;;;;;;;4975671;28;20435;-85
2023/04/16 02:55:29;;;;;;;16.77;10.57;;;;;;;;;;4975997;28;20835;-83
2023/04/16 02:57:55;;;;;;;13.50;10.07;;;;;;;;;;4975499;28;20572;-84
2023/04/16 03:00:21;;;;;;;20.67;9.43;;;;;;;;;;4973466;28;20464;-84
2023/04/16 03:02:47;;;;;;;15.53;9.63;;;;;;;;;;4973079;28;20431;-76
2023/04/16 03:05:13;;;;;;;14.60;9.90;;;;;;;;;;4957118;28;20443;-82
2023/04/16 03:07:39;;;;;;;13.83;9.17;;;;;;;;;;4970503;28;20475;-84
2023/04/16 03:10:06;;;;;;;14.40;9.57;;;;;;;;;;4975780;28;20813;-81
2023/04/16 03:12:32;;;;;;;14.40;10.00;;;;;;;;;;4958470;28;20929;-80
2023/04/16 03:14:58;;;;;;;14.13;9.90;;;;;;;;;;4976328;28;20460;-81
2023/04/16 03:17:24;;;;;;;13.30;9.43;;;;;;;;;;4959367;28;20188;-81
2023/04/16 03:19:50;;;;;;;14.73;10.20;;;;;;;;;;4976727;28;20420;-79
2023/04/16 03:22:16;;;;;;;16.17;10.73;;;;;;;;;;4976655;28;20508;-80
2023/04/16 03:24:41;;;;;;;13.27;9.97;;;;;;;;;;4936315;28;20905;-82
2023/04/16 03:27:07;;;;;;;16.17;10.43;;;;;;;;;;4976086;28;20839;-81
2023/04/16 03:29:36;;;;;;;18.87;9.87;;;;;;;;;;4976523;28;20188;-81
2023/04/16 03:32:02;;;;;;;15.53;10.13;;;;;;;;;;4960878;28;20414;-81
2023/04/16 03:34:28;;;;;;;16.07;10.90;;;;;;;;;;4939786;29;20459;-79
2023/04/16 03:36:54;;;;;;;12.77;10.07;;;;;;;;;;4967326;28;20421;-80
2023/04/16 03:39:20;;;;;;;14.77;10.30;;;;;;;;;;4975140;28;20178;-81
2023/04/16 03:41:46;;;;;;;14.80;9.60;;;;;;;;;;4975893;28;20904;-78
2023/04/16 03:44:12;;;;;;;17.70;11.27;;;;;;;;;;4976223;28;20186;-78
2023/04/16 03:46:38;;;;;;;14.43;9.80;;;;;;;;;;4976093;28;20460;-80
2023/04/16 03:49:04;;;;;;;13.10;9.77;;;;;;;;;;4958836;28;20428;-80
2023/04/16 03:51:30;;;;;;;14.90;10.40;;;;;;;;;;4958646;28;20416;-81
2023/04/16 03:53:56;;;;;;;14.50;10.63;;;;;;;;;;4976034;28;20327;-81
2023/04/16 03:56:21;;;;;;;14.77;9.20;;;;;;;;;;4975971;28;20448;-80
2023/04/16 03:58:47;;;;;;;16.17;9.90;;;;;;;;;;4975573;28;20994;-81
2023/04/16 04:01:13;;;;;;;15.20;10.07;;;;;;;;;;4971459;28;20422;-78
2023/04/16 04:03:39;;;;;;;19.87;10.27;;;;;;;;;;4958600;28;20423;-79
2023/04/16 04:06:08;;;;;;;16.43;9.83;;;;;;;;;;4968554;28;20850;-82
2023/04/16 04:08:34;;;;;;;14.70;9.60;;;;;;;;;;4974742;28;20494;-83
2023/04/16 04:11:00;;;;;;;11.97;9.90;;;;;;;;;;4975928;28;20891;-83
2023/04/16 04:13:26;;;;;;;15.60;11.33;;;;;;;;;;4975033;28;21039;-83
2023/04/16 04:15:52;;;;;;;14.10;9.13;;;;;;;;;;4974951;28;20993;-83
2023/04/16 04:18:18;;;;;;;16.37;11.30;;;;;;;;;;4975856;28;20500;-82
2023/04/16 04:20:44;;;;;;;14.80;10.20;;;;;;;;;;4975441;28;20826;-83
2023/04/16 04:23:10;;;;;;;15.40;11.10;;;;;;;;;;4975797;28;20180;-83
2023/04/16 04:25:36;;;;;;;15.20;9.73;;;;;;;;;;4975808;28;20419;-83
2023/04/16 04:28:02;;;;;;;12.90;9.73;;;;;;;;;;4975278;28;20475;-83
2023/04/16 04:30:28;;;;;;;13.93;10.80;;;;;;;;;;4975633;28;20413;-84
2023/04/16 04:32:54;;;;;;;17.50;10.70;;;;;;;;;;4975615;28;20414;-83
2023/04/16 04:35:20;;;;;;;12.40;9.27;;;;;;;;;;4975535;28;20416;-83
2023/04/16 04:37:46;;;;;;;14.40;10.10;;;;;;;;;;4975543;28;20511;-84
2023/04/16 04:40:12;;;;;;;16.17;9.70;;;;;;;;;;4975424;28;20447;-77
2023/04/16 04:42:38;;;;;;;16.27;10.87;;;;;;;;;;4975067;28;20552;-82
2023/04/16 04:45:04;;;;;;;17.53;9.90;;;;;;;;;;4975385;28;20421;-82
2023/04/16 04:47:30;;;;;;;15.50;10.70;;;;;;;;;;4975183;28;20479;-83
2023/04/16 04:49:56;;;;;;;13.83;9.53;;;;;;;;;;4975101;28;20742;-83
2023/04/16 04:52:22;;;;;;;15.87;11.37;;;;;;;;;;4975236;28;20181;-83
2023/04/16 04:54:48;;;;;;;14.40;9.10;;;;;;;;;;4975067;28;20408;-82
2023/04/16 04:57:14;;;;;;;14.47;10.30;;;;;;;;;;4974800;28;20930;-82
2023/04/16 04:59:40;;;;;;;17.93;11.77;;;;;;;;;;4975112;28;20413;-83
2023/04/16 05:02:05;;;;;;;17.43;10.10;;;;;;;;;;4974980;28;20429;-83
2023/04/16 05:04:31;;;;;;;12.60;9.53;;;;;;;;;;4974980;28;20418;-84
2023/04/16 05:06:57;;;;;;;14.90;10.90;;;;;;;;;;4926960;28;20490;-83
2023/04/16 05:09:23;;;;;;;14.40;10.00;;;;;;;;;;4955530;29;20798;-83
2023/04/16 05:11:49;;;;;;;15.30;10.37;;;;;;;;;;4955248;29;20467;-83
2023/04/16 05:14:16;;;;;;;14.70;10.23;;;;;;;;;;4955474;29;20439;-81
2023/04/16 05:16:41;;;;;;;15.82;11.68;;;;;;;;;;4954014;29;20557;-83
2023/04/16 05:19:07;;;;;;;16.80;12.30;;;;;;;;;;4955420;29;20204;-82
2023/04/16 05:21:33;;;;;;;15.70;11.43;;;;;;;;;;4954183;29;20182;-77
2023/04/16 05:23:59;;;;;;;19.90;12.50;;;;;;;;;;4955342;29;20421;-81
2023/04/16 05:26:25;;;;;;;15.00;11.70;;;;;;;;;;4954899;29;20904;-79
2023/04/16 05:28:51;;;;;;;18.47;12.83;;;;;;;;;;4953977;29;20432;-82
2023/04/16 05:31:17;;;;;;;14.97;12.13;;;;;;;;;;4955165;29;20184;-83
2023/04/16 05:33:43;;;;;;;17.13;11.77;;;;;;;;;;4955225;29;20412;-83
2023/04/16 05:36:09;;;;;;;19.93;12.80;;;;;;;;;;4955178;29;20421;-82
2023/04/16 05:38:35;;;;;;;16.80;12.70;;;;;;;;;;4955125;29;20623;-82
2023/04/16 05:41:00;;;;;;;19.53;13.03;;;;;;;;;;4955229;29;20822;-82
2023/04/16 05:43:26;;;;;;;18.87;13.03;;;;;;;;;;4954801;29;20422;-82
2023/04/16 05:45:52;;;;;;;16.63;11.37;;;;;;;;;;4955074;29;20413;-82
2023/04/16 05:48:19;;;;;;;16.37;12.73;;;;;;;;;;4954976;29;20833;-81
2023/04/16 05:50:44;;;;;;;21.03;12.77;;;;;;;;;;4955032;28;20409;-81
2023/04/16 05:53:12;;;;;;;17.93;12.70;;;;;;;;;;4954989;29;20417;-82
2023/04/16 05:55:38;;;;;;;15.67;11.70;;;;;;;;;;4955083;28;20175;-82
2023/04/16 05:58:04;;;;;;;17.37;12.60;;;;;;;;;;4953317;29;20930;-82
2023/04/16 06:00:31;;;;;;;20.57;14.33;;;;;;;;;;4953817;29;20422;-82
2023/04/16 06:02:56;;;;;;;15.63;11.37;;;;;;;;;;4954527;29;20444;-81
2023/04/16 06:05:23;;;;;;;17.87;11.90;;;;;;;;;;4954851;29;20428;-81
2023/04/16 06:07:49;;;;;;;17.13;13.13;;;;;;;;;;4954857;29;20481;-81
2023/04/16 06:10:15;;;;;;;19.40;12.83;;;;;;;;;;4954836;29;20408;-81
2023/04/16 06:12:41;;;;;;;16.67;12.93;;;;;;;;;;4954429;29;20432;-78
2023/04/16 06:15:07;;;;;;;17.97;12.37;;;;;;;;;;4954594;28;21015;-82
2023/04/16 06:17:36;;;;;;;15.50;12.63;;;;;;;;;;4954822;29;20517;-82
2023/04/16 06:20:02;;;;;;;20.87;12.87;;;;;;;;;;4954907;29;20480;-83
2023/04/16 06:22:31;;;;;;;17.70;13.20;;;;;;;;;;4954758;29;20450;-83
2023/04/16 06:24:57;;;;;;;18.50;14.10;;;;;;;;;;4907221;28;20455;-83
2023/04/16 06:27:23;;;;;;;15.03;10.70;;;;;;;;;;4954216;29;20465;-83
2023/04/16 06:29:49;;;;;;;19.07;12.50;;;;;;;;;;4954680;29;20441;-83
2023/04/16 06:32:16;;;;;;;18.87;13.30;;;;;;;;;;4954628;29;20426;-80
2023/04/16 06:34:42;;;;;;;17.33;12.93;;;;;;;;;;4954589;28;20418;-78
2023/04/16 06:37:08;;;;;;;17.50;12.60;;;;;;;;;;4954639;29;20409;-82
2023/04/16 06:39:34;;;;;;;18.70;13.67;;;;;;;;;;4954578;28;20940;-83
2023/04/16 06:42:00;;;;;;;17.63;12.63;;;;;;;;;;4936959;29;20429;-82
2023/04/16 06:44:26;;;;;;;20.60;14.60;;;;;;;;;;4954546;28;20553;-81
2023/04/16 06:46:52;;;;;;;16.57;12.03;;;;;;;;;;4937162;29;20556;-81
2023/04/16 06:49:18;;;;;;;22.43;13.20;;;;;;;;;;4954444;28;20763;-82
2023/04/16 06:51:44;;;;;;;18.97;14.10;;;;;;;;;;4954349;28;20415;-82
2023/04/16 06:54:10;;;;;;;17.80;12.30;;;;;;;;;;4954492;28;20512;-82
2023/04/16 06:56:36;;;;;;;16.60;12.53;;;;;;;;;;4936906;29;20453;-82
2023/04/16 06:59:02;;;;;;;18.07;12.20;;;;;;;;;;4937241;29;20213;-82
2023/04/16 07:01:29;;;;;;;19.60;13.97;;;;;;;;;;4954280;29;20447;-81
2023/04/16 07:03:55;;;;;;;17.87;13.03;;;;;;;;;;4937306;29;20436;-82
2023/04/16 07:06:21;;;;;;;17.37;13.10;;;;;;;;;;4954209;29;20906;-81
2023/04/16 07:08:47;;;;;;;18.80;12.30;;;;;;;;;;4954307;28;20417;-81
2023/04/16 07:11:16;;;;;;;19.87;12.23;;;;;;;;;;4936829;29;20501;-82
2023/04/16 07:13:42;;;;;;;15.50;12.50;;;;;;;;;;4938177;29;20463;-81
2023/04/16 07:16:08;;;;;;;18.43;12.57;;;;;;;;;;4940214;29;20505;-82
2023/04/16 07:18:34;;;;;;;14.77;11.30;;;;;;;;;;4940410;29;20431;-82
2023/04/16 07:21:00;;;;;;;19.10;13.13;;;;;;;;;;4940313;29;20463;-81
2023/04/16 07:23:26;;;;;;;16.83;11.27;;;;;;;;;;4940271;29;20474;-80
2023/04/16 07:25:52;;;;;;;18.23;12.80;;;;;;;;;;4957106;28;20777;-81
2023/04/16 07:28:19;;;;;;;17.00;11.80;;;;;;;;;;4957230;29;20485;-81
2023/04/16 07:30:45;;;;;;;16.87;12.43;;;;;;;;;;4940211;29;20179;-81
2023/04/16 07:33:10;;;;;;;17.70;11.80;;;;;;;;;;4957369;29;20424;-82
2023/04/16 07:35:36;;;;;;;15.80;11.53;;;;;;;;;;4957319;28;20626;-83
2023/04/16 07:38:02;;;;;;;15.90;11.93;;;;;;;;;;4972543;28;20805;-81
2023/04/16 07:40:28;;;;;;;16.07;12.80;;;;;;;;;;4974967;28;20969;-81
2023/04/16 07:42:55;;;;;;;14.80;11.47;;;;;;;;;;4974717;28;20176;-81
2023/04/16 07:45:21;;;;;;;16.50;12.23;;;;;;;;;;4957639;28;20962;-82
2023/04/16 07:47:47;;;;;;;16.37;12.10;;;;;;;;;;4975356;28;20471;-82
2023/04/16 07:50:13;;;;;;;14.10;11.20;;;;;;;;;;4976381;28;20414;-79
2023/04/16 07:52:41;;;;;;;16.47;12.20;;;;;;;;;;4965639;28;20969;-79
2023/04/16 07:55:07;;;;;;;17.37;12.10;;;;;;;;;;4973353;28;20425;-80
2023/04/16 07:57:33;;;;;;;17.60;12.60;;;;;;;;;;4970877;28;20431;-81
2023/04/16 08:00:01;;;;;;;19.23;12.57;;;;;;;;;;4958638;28;20984;-81
2023/04/16 08:02:27;;;;;;;16.20;11.83;;;;;;;;;;4976103;28;20415;-81
2023/04/16 08:04:53;;;;;;;15.37;11.73;;;;;;;;;;4948385;28;20442;-80
2023/04/16 08:07:19;;;;;;;17.70;13.23;;;;;;;;;;4956492;29;21016;-78
2023/04/16 08:09:48;;;;;;;14.07;10.63;;;;;;;;;;4955446;29;20567;-82
2023/04/16 08:12:16;;;;;;;12.63;10.70;;;;;;;;;;4954694;29;20437;-82
2023/04/16 08:14:42;;;;;;;14.00;10.60;;;;;;;;;;4956440;29;20421;-84
2023/04/16 08:17:08;;;;;;;16.87;11.60;;;;;;;;;;4955363;29;20417;-83
2023/04/16 08:19:33;;;;;;;15.33;10.43;;;;;;;;;;4956495;29;20418;-84
2023/04/16 08:21:59;;;;;;;14.33;10.80;;;;;;;;;;4954899;29;20509;-82
2023/04/16 08:24:25;;;;;;;14.73;10.80;;;;;;;;;;4945690;28;20923;-80
2023/04/16 08:26:51;;;;;;;13.90;10.10;;;;;;;;;;4944997;28;20556;-81
2023/04/16 08:29:17;;;;;;;17.97;11.60;;;;;;;;;;4975248;28;20417;-81
2023/04/16 08:31:43;;;;;;;14.10;10.00;;;;;;;;;;4975807;28;20180;-78
2023/04/16 08:34:11;;;;;;;11.67;10.23;;;;;;;;;;4975585;28;20498;-82
2023/04/16 08:36:37;;;;;;;13.90;10.47;;;;;;;;;;4978567;28;20445;-82
2023/04/16 08:39:02;;;;;;;11.37;10.17;;;;;;;;;;4966746;28;20465;-82
2023/04/16 08:41:30;;;;;;;18.60;10.30;;;;;;;;;;4970190;28;20430;-83
2023/04/16 08:43:57;;;;;;;9.20;8.23;;;;;;;;;;4975337;28;20804;-82
2023/04/16 08:46:25;;;;;;;13.20;9.67;;;;;;;;;;4975029;28;20445;-83
2023/04/16 08:48:53;;;;;;;14.60;10.43;;;;;;;;;;4975156;28;20427;-83
2023/04/16 08:51:21;;;;;;;12.80;10.30;;;;;;;;;;4975053;28;20455;-83
2023/04/16 08:53:48;;;;;;;14.43;10.53;;;;;;;;;;4974949;28;20548;-82
2023/04/16 08:56:15;;;;;;;11.70;9.50;;;;;;;;;;4957357;28;20419;-82
2023/04/16 08:58:41;;;;;;;13.03;9.63;;;;;;;;;;4975024;28;20442;-81
2023/04/16 09:01:11;;;;;;;12.40;10.80;;;;;;;;;;4974950;28;20418;-79
2023/04/16 09:03:37;;;;;;;13.53;10.03;;;;;;;;;;4974705;28;20413;-80
2023/04/16 09:06:03;;;;;;;12.83;9.13;;;;;;;;;;4974831;28;20419;-79
2023/04/16 09:08:30;;;;;;;11.40;9.90;;;;;;;;;;4974676;28;20481;-79
2023/04/16 09:10:56;;;;;;;11.87;9.40;;;;;;;;;;4974489;28;20401;-79
2023/04/16 09:13:22;;;;;;;13.90;10.47;;;;;;;;;;4974710;28;20430;-79
2023/04/16 09:15:51;;;;;;;12.13;10.00;;;;;;;;;;4974363;28;20468;-79
2023/04/16 09:18:19;;;;;;;13.87;11.23;;;;;;;;;;4974551;28;20422;-80
2023/04/16 09:20:45;;;;;;;10.47;9.13;;;;;;;;;;4974509;28;20456;-80
2023/04/16 09:23:11;;;;;;;13.23;11.00;;;;;;;;;;4974377;28;20421;-79
2023/04/16 09:25:37;;;;;;;13.77;10.10;;;;;;;;;;4962636;28;20210;-79
2023/04/16 09:28:03;;;;;;;11.60;9.63;;;;;;;;;;4972008;28;20475;-79
2023/04/16 09:30:29;;;;;;;15.77;10.40;;;;;;;;;;4966936;28;20417;-79
2023/04/16 09:33:30;;;;;;;13.60;11.83;;;;;;;;;;4974434;28;20826;-80
2023/04/16 09:35:56;;;;;;;13.17;10.10;;;;;;;;;;4933137;29;20430;-79
2023/04/16 09:38:25;;;;;;;10.70;9.57;;;;;;;;;;4949109;28;20564;-81
2023/04/16 09:41:06;;;;;;;12.60;10.20;;;;;;;;;;4973897;28;20771;-82
2023/04/16 09:43:31;;;;;;;13.57;10.83;;;;;;;;;;4974332;28;20418;-81
2023/04/16 09:45:57;;;;;;;13.40;9.97;;;;;;;;;;4974242;28;20796;-81
2023/04/16 09:48:33;;;;;;;12.57;10.97;;;;;;;;;;4974187;28;20209;-82
2023/04/16 09:51:00;;;;;;;12.70;10.03;;;;;;;;;;4974094;28;20176;-81
2023/04/16 09:53:30;;;;;;;16.63;11.30;;;;;;;;;;4974242;28;20422;-81
2023/04/16 09:56:00;;;;;;;12.10;9.17;;;;;;;;;;4973813;28;20409;-81
2023/04/16 09:58:26;;;;;;;13.27;10.20;;;;;;;;;;4974104;28;20927;-81
2023/04/16 10:01:01;;;;;;;13.07;9.33;;;;;;;;;;4973837;28;20412;-81
2023/04/16 10:03:31;;;;;;;12.80;9.67;;;;;;;;;;4955840;28;20447;-81
2023/04/16 10:06:06;;;;;;;12.03;9.80;;;;;;;;;;4958624;28;20452;-82
2023/04/16 10:08:32;;;;;;;12.57;9.10;;;;;;;;;;4926285;28;20856;-80
2023/04/16 10:10:58;;;;;;;8.70;7.67;;;;;;;;;;4951029;28;20841;-84
2023/04/16 10:13:26;;;;;;;11.13;10.00;;;;;;;;;;4959936;28;20593;-78
2023/04/16 10:15:54;;;;;;;14.93;9.00;;;;;;;;;;4959605;28;20896;-85
2023/04/16 10:18:20;;;;;;;12.50;10.13;;;;;;;;;;4959659;28;20452;-83
2023/04/16 10:20:47;;;;;;;10.77;9.53;;;;;;;;;;4960021;28;20444;-80
2023/04/16 10:23:14;;;;;;;12.90;9.87;;;;;;;;;;4959668;28;20432;-83
2023/04/16 10:25:40;;;;;;;14.10;9.40;;;;;;;;;;4958657;28;20927;-83
2023/04/16 10:28:06;;;;;;;10.70;7.73;;;;;;;;;;4959366;28;20568;-83
2023/04/16 10:30:32;;;;;;;11.10;7.93;;;;;;;;;;4957437;28;20444;-84
2023/04/16 10:33:18;;;;;;;12.00;8.17;;;;;;;;;;4949829;28;20505;-83
2023/04/16 10:35:45;;;;;;;12.47;9.00;;;;;;;;;;4949522;28;20443;-82
2023/04/16 10:38:31;;;;;;;10.60;8.40;;;;;;;;;;4948328;28;20439;-79
2023/04/16 10:41:04;;;;;;;9.40;8.10;;;;;;;;;;4949082;28;20436;-79
2023/04/16 10:43:30;;;;;;;13.53;8.33;;;;;;;;;;4956931;28;20441;-79
2023/04/16 10:45:56;;;;;;;10.23;9.07;;;;;;;;;;4959341;28;20446;-84
2023/04/16 10:48:26;;;;;;;8.10;7.03;;;;;;;;;;4951883;28;20583;-79
2023/04/16 10:50:58;;;;;;;8.93;8.00;;;;;;;;;;4961541;28;20514;-82
2023/04/16 10:53:26;;;;;;;10.27;8.27;;;;;;;;;;4963563;28;21031;-79
2023/04/16 10:56:04;;;;;;;11.70;8.50;;;;;;;;;;4961264;28;20427;-80
2023/04/16 10:58:31;;;;;;;9.83;7.43;;;;;;;;;;4960073;28;21178;-83
2023/04/16 11:01:06;;;;;;;12.97;8.53;;;;;;;;;;4953001;28;20523;-84
2023/04/16 11:03:32;;;;;;;9.53;7.10;;;;;;;;;;4960750;28;20475;-80
2023/04/16 11:06:16;;;;;;;8.93;8.03;;;;;;;;;;4952439;28;20448;-82
2023/04/16 11:08:44;;;;;;;13.70;8.50;;;;;;;;;;4923421;28;21247;-82
2023/04/16 11:11:11;;;;;;;10.50;8.43;;;;;;;;;;4962513;28;20429;-84
2023/04/16 11:13:40;;;;;;;8.70;7.80;;;;;;;;;;4957110;28;20478;-84
2023/04/16 11:16:06;;;;;;;9.53;7.60;;;;;;;;;;4974888;28;20463;-84
2023/04/16 11:18:33;;;;;;;9.83;8.00;;;;;;;;;;4976528;28;20844;-84
2023/04/16 11:20:59;;;;;;;11.20;7.93;;;;;;;;;;4975522;28;20408;-82
2023/04/16 11:23:25;;;;;;;13.00;8.77;;;;;;;;;;4958244;28;20964;-85
2023/04/16 11:25:55;;;;;;;11.27;8.37;;;;;;;;;;4958190;28;20415;-85
2023/04/16 11:28:31;;;;;;;12.43;8.17;;;;;;;;;;4975736;28;20471;-83
2023/04/16 11:30:59;;;;;;;13.50;8.67;;;;;;;;;;4974976;28;20803;-82
2023/04/16 11:33:31;;;;;;;10.00;8.37;;;;;;;;;;4975492;28;20421;-83
2023/04/16 11:35:57;;;;;;;12.43;8.43;;;;;;;;;;4975503;28;20419;-83
2023/04/16 11:38:32;;;;;;;11.93;8.10;;;;;;;;;;4975119;28;20768;-83
2023/04/16 11:40:58;;;;;;;8.27;7.00;;;;;;;;;;4975038;28;20490;-83
2023/04/16 11:43:26;;;;;;;9.27;7.70;;;;;;;;;;4975178;28;20569;-83
2023/04/16 11:45:58;;;;;;;9.13;8.03;;;;;;;;;;4975541;28;20169;-84
2023/04/16 11:48:24;;;;;;;13.70;8.97;;;;;;;;;;4974112;28;20561;-85
2023/04/16 11:50:57;;;;;;;12.63;8.90;;;;;;;;;;4974310;28;20892;-79
2023/04/16 11:53:23;;;;;;;11.07;7.93;;;;;;;;;;4974210;28;20419;-83
2023/04/16 11:55:49;;;;;;;12.73;8.87;;;;;;;;;;4974141;28;20419;-83
2023/04/16 11:58:15;;;;;;;12.90;8.73;;;;;;;;;;4974010;28;20454;-83
2023/04/16 12:00:41;;;;;;;11.03;8.73;;;;;;;;;;4974150;28;20443;-82
2023/04/16 12:03:07;;;;;;;13.17;9.50;;;;;;;;;;4974970;28;20801;-84
2023/04/16 12:05:33;;;;;;;8.87;7.10;;;;;;;;;;4974911;28;20405;-85
2023/04/16 12:08:03;;;;;;;11.13;7.20;;;;;;;;;;4974647;28;20475;-85
2023/04/16 12:10:30;;;;;;;9.87;7.80;;;;;;;;;;4974576;28;20412;-85
2023/04/16 12:13:15;;;;;;;10.57;7.10;;;;;;;;;;4974510;28;20560;-84
2023/04/16 12:15:47;;;;;;;11.10;7.03;;;;;;;;;;4974595;28;20475;-85
2023/04/16 12:18:14;;;;;;;12.00;7.50;;;;;;;;;;4974552;28;20418;-84
2023/04/16 12:20:40;;;;;;;10.47;7.93;;;;;;;;;;4974392;28;20895;-80
2023/04/16 12:23:10;;;;;;;13.40;7.80;;;;;;;;;;4970560;28;20436;-78
2023/04/16 12:25:36;;;;;;;11.13;7.73;;;;;;;;;;4923080;29;20421;-84
2023/04/16 12:28:02;;;;;;;8.93;7.10;;;;;;;;;;4954990;29;20470;-83
2023/04/16 12:30:29;;;;;;;8.90;6.90;;;;;;;;;;4955324;29;20455;-83
2023/04/16 12:33:15;;;;;;;10.20;8.20;;;;;;;;;;4955381;29;21225;-83
2023/04/16 12:35:42;;;;;;;11.17;10.03;;;;;;;;;;4955007;29;20414;-83
2023/04/16 12:38:08;;;;;;;10.80;7.20;;;;;;;;;;4972242;28;20422;-83
2023/04/16 12:40:35;;;;;;;9.83;7.40;;;;;;;;;;4972417;28;20517;-78
2023/04/16 12:43:01;;;;;;;9.30;7.60;;;;;;;;;;4974369;28;20421;-78
2023/04/16 12:45:27;;;;;;;8.70;7.03;;;;;;;;;;4974130;28;20488;-84
2023/04/16 12:47:54;;;;;;;9.83;7.73;;;;;;;;;;4940917;28;20507;-79
2023/04/16 12:50:20;;;;;;;11.37;7.03;;;;;;;;;;4961014;28;20970;-79
2023/04/16 12:52:46;;;;;;;7.90;7.07;;;;;;;;;;4974141;28;20493;-83
2023/04/16 12:55:13;;;;;;;11.60;7.43;;;;;;;;;;4974745;28;20447;-83
2023/04/16 12:57:39;;;;;;;13.20;7.40;;;;;;;;;;4975091;28;20847;-83
2023/04/16 13:00:09;;;;;;;10.97;8.20;;;;;;;;;;4957784;28;20424;-82
2023/04/16 13:02:35;;;;;;;9.33;7.33;;;;;;;;;;4957791;28;20459;-82
2023/04/16 13:05:01;;;;;;;10.47;7.90;;;;;;;;;;4957699;28;20410;-82
2023/04/16 13:07:30;;;;;;;9.67;7.50;;;;;;;;;;4955929;28;20472;-82
2023/04/16 13:09:56;;;;;;;13.10;8.27;;;;;;;;;;4956237;28;20915;-82
2023/04/16 13:12:22;;;;;;;8.53;7.40;;;;;;;;;;4974792;28;20422;-87
2023/04/16 13:14:48;;;;;;;10.93;8.30;;;;;;;;;;4969992;28;20500;-84
2023/04/16 13:17:15;;;;;;;8.40;7.50;;;;;;;;;;4972350;28;20432;-83
2023/04/16 13:19:40;;;;;;;10.70;8.07;;;;;;;;;;4956484;28;20455;-85
2023/04/16 13:22:06;;;;;;;10.33;7.57;;;;;;;;;;4968796;28;20459;-86
2023/04/16 13:24:32;;;;;;;11.20;6.83;;;;;;;;;;4925899;28;20533;-83
2023/04/16 13:27:00;;;;;;;10.87;8.77;;;;;;;;;;4955368;28;20476;-84
2023/04/16 13:29:26;;;;;;;13.80;8.80;;;;;;;;;;4973411;28;20851;-85
2023/04/16 13:31:52;;;;;;;9.73;8.10;;;;;;;;;;4955568;28;20408;-86
2023/04/16 13:34:25;;;;;;;11.23;10.10;;;;;;;;;;4954511;28;20431;-81
2023/04/16 13:36:51;;;;;;;9.80;8.43;;;;;;;;;;4973197;28;20404;-85
2023/04/16 13:39:20;;;;;;;10.87;6.87;;;;;;;;;;4955929;28;20548;-82
2023/04/16 13:41:47;;;;;;;13.20;9.97;;;;;;;;;;4971361;28;20438;-84
2023/04/16 13:44:13;;;;;;;10.50;7.43;;;;;;;;;;4955261;28;20920;-84
2023/04/16 13:46:42;;;;;;;8.40;6.23;;;;;;;;;;4973122;28;20508;-82
2023/04/16 13:49:08;;;;;;;10.87;7.67;;;;;;;;;;4956019;28;20424;-83
2023/04/16 13:51:34;;;;;;;10.77;8.10;;;;;;;;;;4955188;28;20439;-83
2023/04/16 13:54:00;;;;;;;12.90;9.67;;;;;;;;;;4971731;28;20191;-81
2023/04/16 13:56:26;;;;;;;8.80;7.90;;;;;;;;;;4971714;28;20499;-84
2023/04/16 13:58:52;;;;;;;11.23;8.73;;;;;;;;;;4955650;28;20568;-84
2023/04/16 14:01:18;;;;;;;8.93;7.37;;;;;;;;;;4935757;29;20841;-83
2023/04/16 14:03:44;;;;;;;13.43;8.13;;;;;;;;;;4959756;28;20526;-86
2023/04/16 14:06:10;;;;;;;11.97;8.57;;;;;;;;;;4971118;28;20507;-88
2023/04/16 14:08:37;;;;;;;13.23;8.50;;;;;;;;;;4955455;28;20630;-86
2023/04/16 14:11:05;;;;;;;13.30;8.43;;;;;;;;;;4972820;28;20403;-89
2023/04/16 14:13:37;;;;;;;12.60;8.33;;;;;;;;;;4971742;28;20431;-86
2023/04/16 14:16:06;;;;;;;9.80;8.43;;;;;;;;;;4971511;28;20474;-86
2023/04/16 14:18:32;;;;;;;10.27;7.93;;;;;;;;;;4967481;28;20424;-83
2023/04/16 14:21:00;;;;;;;10.70;8.77;;;;;;;;;;4953456;29;20417;-87
2023/04/16 14:23:28;;;;;;;10.70;8.27;;;;;;;;;;4938822;29;20494;-87